Accueil
METAR-TAF:

METAR-TAF

Aéroports :

Tripoli, Libye

Aéroport de Milaga

latitude: 32-54N, longitude: 13-17E, altitude: 11 m

Observation

Le bulletin a été fait il y a 2 heures et 58 minutes, à 21:50 UTC
Vent 3 kt de est
Température 12°C
Humidité 76%
Pression 1006 hPa
Visibilité: 6000 m

METAR: HLLM 212150Z 10003KT 6000 NSC 12/08 Q1006

Heure: 02:48 (00:48 UTC)

Prévision

Le bulletin a été fait il y a 7 heures et 48 minutes, à 17:00 UTC
Prévision valable du 21 à 18 UTC au 22 à 18 UTC
Vent 2 kt de direction variable
Visibilité: 8000 m
Evoluant progressivement
du 22 à 02 UTC au 22 à 04 UTC
Vent 12 kt de sud/sud-est
Evoluant progressivement
du 22 à 12 UTC au 22 à 15 UTC

TAF: HLLM 211700Z 2118/2218 VRB02KT 8000 NSC BECMG 2202/2204 16012KT BECMG 2212/2215 0908KT

Observations et prévisions météorologiques de plus de 4000 aéroports (messages METAR et TAF).

Les stations disponibles sont représentées par des disques jaunes et rouges sur la carte.

Passer la souris dessus pour voir le nom de la station.

Cliquer dessus pour voir les observations et prévisions météorologiques.

Pour changer de carte: cliquez sur les boutons verts avec une croix noire pour zoomer, sur le bouton vert avec un tiret pour effectuer un zoom arrière, ou sur les flèches vertes pour les cartes adjacentes.


METAR-TAF: